This is the latest recevied weather packets stored in our database for station/object WZ9ZZZ-1. If no packets are shown the sender has not sent any weather packets the latest 10 day(s).
| Time | Temp. | Humidity | Pressure | Rain* | Wind** | Luminosity | Snow |
|---|---|---|---|---|---|---|---|
| 1777154033 | 29.44° C | 77% | 1010.7 hPa | 0 mm | - | 371 W/m² | - |
| 1777153730 | 28.89° C | 77% | 1010.8 hPa | 0 mm | - | 376 W/m² | - |
| 1777153426 | 28.89° C | 77% | 1010.7 hPa | 0 mm | - | 266 W/m² | - |
| 1777153122 | 30° C | 75% | 1010.8 hPa | 0 mm | - | 385 W/m² | - |
| 1777152819 | 30° C | 74% | 1010.9 hPa | 0 mm | - | 219 W/m² | - |
| 1777152515 | 30° C | 75% | 1010.5 hPa | 0 mm | - | 452 W/m² | - |
| 1777152212 | 29.44° C | 76% | 1010.7 hPa | 0 mm | - | 448 W/m² | - |
| 1777151907 | 30° C | 75% | 1010.8 hPa | 0 mm | - | 465 W/m² | - |
| 1777151604 | 30° C | 75% | 1010.8 hPa | 0 mm | - | 487 W/m² | - |
| 1777151301 | 30.56° C | 73% | 1010.8 hPa | 0 mm | - | 324 W/m² | - |
| 1777151001 | 30.56° C | 73% | 1010.7 hPa | 0 mm | - | 511 W/m² | - |
| 1777150696 | 29.44° C | 76% | 1011.1 hPa | 0 mm | - | 523 W/m² | - |
| 1777150392 | 28.89° C | 77% | 1011.2 hPa | 0 mm | - | 530 W/m² | - |
| 1777150089 | 29.44° C | 77% | 1011.2 hPa | 0 mm | - | 461 W/m² | - |
| 1777149784 | 29.44° C | 77% | 1011.2 hPa | 0 mm | - | 376 W/m² | - |
| 1777149481 | 30° C | 75% | 1011.2 hPa | 0 mm | - | 323 W/m² | - |
| 1777149177 | 30° C | 75% | 1011.4 hPa | 0 mm | - | 372 W/m² | - |
| 1777148876 | 30° C | 76% | 1011.4 hPa | 0 mm | - | 354 W/m² | - |
| 1777148574 | 30.56° C | 76% | 1011.5 hPa | 0 mm | - | 510 W/m² | - |
| 1777148270 | 30° C | 76% | 1011.5 hPa | 0 mm | - | 497 W/m² | - |
| 1777147967 | 29.44° C | 77% | 1011.4 hPa | 0 mm | - | 615 W/m² | - |
| 1777147663 | 30° C | 75% | 1011.6 hPa | 0 mm | - | 634 W/m² | - |
| 1777147358 | 30° C | 77% | 1011.6 hPa | 0 mm | - | 387 W/m² | - |
| 1777147054 | 29.44° C | 78% | 1011.6 hPa | 0 mm | - | 601 W/m² | - |
| 1777146750 | 28.89° C | 78% | 1012 hPa | 0 mm | - | 589 W/m² | - |
* Rain latest hour (hover to see other rain measurements)
** Current wind speed in m/s (hover to see current wind gust speed)